Time;durP1;ratioP1;P1;durP2;ratioP2;P2;SDS_P1;SDS_P2;PMS_P1;PMS_P2;Temp;Humidity;BMP_temperature;BMP_pressure;BME280_temperature;BME280_humidity;BME280_pressure;Samples;Min_cycle;Max_cycle;Signal;HPM_P1;HPM_P2
2023/03/15 00:00:25;;;;;;;7.95;3.78;;;;;;;5.28;60.44;93672.41;5145185;27;20228;-77
2023/03/15 00:02:52;;;;;;;7.65;3.92;;;;;;;5.23;60.67;93669.88;5139266;27;20200;-78
2023/03/15 00:05:20;;;;;;;12.65;4.32;;;;;;;5.20;60.03;93664.34;5137599;27;20250;-78
2023/03/15 00:07:47;;;;;;;8.35;4.20;;;;;;;5.21;61.42;93655.19;5151349;27;20234;-78
2023/03/15 00:10:16;;;;;;;8.05;4.38;;;;;;;5.29;59.49;93659.78;5137506;27;20855;-78
2023/03/15 00:12:43;;;;;;;8.20;4.10;;;;;;;5.40;59.95;93655.66;5151068;27;20200;-79
2023/03/15 00:15:13;;;;;;;10.18;4.32;;;;;;;5.38;60.91;93657.84;5135334;27;20296;-78
2023/03/15 00:17:40;;;;;;;14.57;5.82;;;;;;;5.35;60.87;93656.59;5130053;27;20225;-79
2023/03/15 00:20:09;;;;;;;10.73;4.68;;;;;;;5.34;61.10;93664.97;5146897;27;20844;-78
2023/03/15 00:22:36;;;;;;;6.55;4.22;;;;;;;5.35;61.07;93661.97;5151002;27;20670;-79
2023/03/15 00:25:03;;;;;;;15.57;5.40;;;;;;;5.02;61.76;93657.44;5151621;27;20212;-78
2023/03/15 00:27:31;;;;;;;17.80;7.22;;;;;;;5.02;62.31;93663.59;5140541;27;20291;-77
2023/03/15 00:29:58;;;;;;;16.42;5.75;;;;;;;5.04;62.71;93666.75;5138266;27;20608;-77
2023/03/15 00:32:25;;;;;;;12.98;5.63;;;;;;;5.20;61.97;93654.41;5151552;27;20200;-79
2023/03/15 00:34:53;;;;;;;12.70;5.28;;;;;;;5.17;63.16;93654.25;5133581;27;20221;-79
2023/03/15 00:37:20;;;;;;;10.35;5.47;;;;;;;5.13;63.82;93643.38;5142179;27;20670;-79
2023/03/15 00:39:48;;;;;;;10.13;5.18;;;;;;;5.12;63.22;93643.69;5146415;27;20694;-79
2023/03/15 00:42:15;;;;;;;9.15;4.13;;;;;;;5.24;63.03;93646.50;5142691;27;20199;-79
2023/03/15 00:44:44;;;;;;;13.35;4.43;;;;;;;5.25;63.34;93650.78;5137342;27;20291;-78
2023/03/15 00:47:11;;;;;;;9.68;4.45;;;;;;;5.31;62.31;93642.25;5138605;27;20250;-79
2023/03/15 00:49:38;;;;;;;11.02;5.07;;;;;;;5.32;62.13;93645.72;5144410;27;20220;-79
2023/03/15 00:52:06;;;;;;;10.88;4.85;;;;;;;5.41;62.66;93635.75;5143855;27;20612;-79
2023/03/15 00:54:33;;;;;;;17.50;5.22;;;;;;;5.40;62.66;93636.84;5136708;27;20211;-77
2023/03/15 00:57:00;;;;;;;6.30;3.97;;;;;;;5.46;62.29;93630.22;5137198;27;20250;-77
2023/03/15 00:59:33;;;;;;;9.57;4.18;;;;;;;5.52;62.55;93628.91;5144567;27;20628;-79
2023/03/15 01:02:02;;;;;;;6.78;4.07;;;;;;;5.58;62.36;93616.91;5144042;27;20246;-79
2023/03/15 01:04:30;;;;;;;6.78;4.43;;;;;;;5.57;61.17;93620.69;5138567;27;20212;-78
2023/03/15 01:06:57;;;;;;;14.52;5.80;;;;;;;5.55;62.13;93617.53;5150337;27;21015;-77
2023/03/15 01:09:24;;;;;;;8.95;4.35;;;;;;;5.62;61.94;93617.81;5141967;27;20208;-78
2023/03/15 01:11:51;;;;;;;9.30;4.28;;;;;;;5.78;61.79;93609.25;5144233;27;20261;-77
2023/03/15 01:14:18;;;;;;;9.07;4.70;;;;;;;5.78;61.13;93615.41;5130309;27;20201;-78
2023/03/15 01:16:45;;;;;;;10.20;4.78;;;;;;;5.86;60.59;93603.84;5143919;27;20223;-78
2023/03/15 01:19:13;;;;;;;7.85;4.38;;;;;;;5.98;61.01;93608.56;5138743;27;20225;-78
2023/03/15 01:21:40;;;;;;;11.65;5.35;;;;;;;6.02;60.59;93607.56;5150350;27;21801;-78
2023/03/15 01:24:07;;;;;;;10.65;4.20;;;;;;;6.04;60.23;93605.34;5150697;27;20200;-78
2023/03/15 01:26:34;;;;;;;14.20;5.30;;;;;;;6.00;62.20;93593.69;5133522;27;20237;-78
2023/03/15 01:29:01;;;;;;;7.15;4.38;;;;;;;6.00;61.69;93595.59;5134367;27;20225;-78
2023/03/15 01:31:30;;;;;;;8.35;4.63;;;;;;;6.07;61.49;93585.09;5143607;27;20208;-78
2023/03/15 01:33:57;;;;;;;9.57;5.00;;;;;;;6.11;60.67;93591.41;5140506;27;20220;-78
2023/03/15 01:36:25;;;;;;;9.15;5.10;;;;;;;6.13;60.69;93589.19;5147429;27;20271;-78
2023/03/15 01:38:53;;;;;;;7.43;4.30;;;;;;;6.06;60.75;93583.53;5141054;27;20203;-78
2023/03/15 01:41:22;;;;;;;9.25;4.93;;;;;;;6.01;60.73;93586.41;5150289;27;20203;-78
2023/03/15 01:43:48;;;;;;;12.38;5.20;;;;;;;6.00;61.01;93582.16;5138814;27;20277;-79
2023/03/15 01:46:23;;;;;;;11.80;5.85;;;;;;;6.01;62.31;93575.66;5148319;27;20212;-79
2023/03/15 01:48:55;;;;;;;9.82;4.53;;;;;;;6.10;61.87;93579.09;5149967;27;20214;-79
2023/03/15 01:51:27;;;;;;;11.95;6.10;;;;;;;5.97;61.67;93569.34;5149903;27;20667;-78
2023/03/15 01:53:59;;;;;;;11.27;5.72;;;;;;;5.94;61.96;93567.31;5149548;27;20673;-78
2023/03/15 01:56:28;;;;;;;8.38;5.03;;;;;;;5.95;60.45;93566.22;5141370;27;20193;-79
2023/03/15 01:58:56;;;;;;;13.35;5.13;;;;;;;6.04;60.56;93564.25;5143217;27;20196;-78
2023/03/15 02:01:23;;;;;;;13.77;4.90;;;;;;;5.91;61.52;93554.50;5129504;27;20205;-78
2023/03/15 02:03:55;;;;;;;12.20;4.93;;;;;;;5.92;61.75;93561.47;5132187;27;20193;-77
2023/03/15 02:06:22;;;;;;;10.20;4.75;;;;;;;5.87;62.01;93558.97;5139544;27;20220;-78
2023/03/15 02:08:54;;;;;;;8.65;5.35;;;;;;;5.59;61.20;93554.03;5146458;27;20721;-78
2023/03/15 02:11:24;;;;;;;12.50;5.30;;;;;;;5.46;63.07;93544.28;5149652;27;20712;-79
2023/03/15 02:13:52;;;;;;;10.88;5.15;;;;;;;5.39;61.84;93538.59;5135522;27;20192;-78
2023/03/15 02:16:20;;;;;;;9.05;4.85;;;;;;;5.41;63.10;93541.75;5137265;27;20597;-78
2023/03/15 02:18:47;;;;;;;10.18;4.85;;;;;;;5.47;64.00;93528.94;5142187;27;20317;-78
2023/03/15 02:21:25;;;;;;;8.93;4.38;;;;;;;5.48;63.76;93525.94;5141120;27;20211;-79
2023/03/15 02:24:01;;;;;;;13.75;5.20;;;;;;;5.50;64.35;93526.41;5136786;27;20203;-78
2023/03/15 02:26:35;;;;;;;10.80;5.07;;;;;;;5.58;64.73;93532.84;5135677;27;20947;-78
2023/03/15 02:29:03;;;;;;;9.63;4.32;;;;;;;5.55;64.67;93528.91;5144929;27;20211;-78
2023/03/15 02:31:36;;;;;;;8.93;5.03;;;;;;;5.31;66.14;93520.66;5131849;27;20336;-79
2023/03/15 02:34:04;;;;;;;10.35;4.65;;;;;;;5.16;66.23;93523.84;5140349;27;20217;-78
2023/03/15 02:36:32;;;;;;;8.85;4.50;;;;;;;5.27;66.75;93530.44;5144704;27;20212;-79
2023/03/15 02:38:59;;;;;;;9.27;4.93;;;;;;;5.34;66.43;93536.88;5140362;27;20196;-79
2023/03/15 02:41:30;;;;;;;12.40;4.90;;;;;;;5.32;66.17;93532.97;5130138;27;20203;-78
2023/03/15 02:44:03;;;;;;;9.43;4.10;;;;;;;5.30;66.97;93527.13;5141371;27;20197;-78
2023/03/15 02:46:31;;;;;;;8.27;4.10;;;;;;;5.25;66.50;93528.06;5135632;27;20242;-77
2023/03/15 02:49:00;;;;;;;10.75;4.80;;;;;;;5.25;65.59;93516.53;5134850;27;20572;-78
2023/03/15 02:51:28;;;;;;;10.75;5.28;;;;;;;5.26;65.57;93524.28;5149530;27;20227;-78
2023/03/15 02:53:56;;;;;;;7.68;4.07;;;;;;;5.24;65.13;93513.06;5135315;27;20713;-78
2023/03/15 02:56:23;;;;;;;18.27;5.63;;;;;;;5.20;64.85;93519.41;5140914;27;20201;-78
2023/03/15 02:58:50;;;;;;;13.18;5.30;;;;;;;5.28;65.77;93510.53;5129821;27;20204;-77
2023/03/15 03:01:17;;;;;;;8.38;4.75;;;;;;;5.37;66.54;93508.59;5149319;27;20265;-78
2023/03/15 03:03:47;;;;;;;9.57;5.05;;;;;;;5.18;66.31;93516.28;5132929;27;20662;-76
2023/03/15 03:06:15;;;;;;;9.13;4.90;;;;;;;5.08;66.77;93512.00;5138432;27;20216;-77
2023/03/15 03:08:46;;;;;;;7.55;4.32;;;;;;;4.99;67.98;93509.38;5152470;27;20939;-76
2023/03/15 03:11:13;;;;;;;9.85;4.55;;;;;;;4.76;68.62;93505.31;5142341;27;20189;-77
2023/03/15 03:13:40;;;;;;;9.43;4.35;;;;;;;4.70;67.83;93503.91;5146278;27;20189;-78
2023/03/15 03:16:07;;;;;;;8.43;4.93;;;;;;;4.69;67.66;93499.63;5131898;27;20211;-77
2023/03/15 03:18:35;;;;;;;10.55;4.18;;;;;;;4.71;68.74;93493.97;5146162;27;20237;-78
2023/03/15 03:21:05;;;;;;;7.35;3.97;;;;;;;4.82;68.79;93493.31;5143091;27;20200;-78
2023/03/15 03:23:33;;;;;;;7.40;4.30;;;;;;;4.79;68.57;93499.31;5152472;27;20218;-78
2023/03/15 03:26:01;;;;;;;9.70;4.82;;;;;;;4.87;68.52;93489.66;5140717;27;20264;-77
2023/03/15 03:28:31;;;;;;;9.50;4.40;;;;;;;4.87;69.22;93485.09;5146675;27;20624;-78
2023/03/15 03:30:58;;;;;;;9.55;5.72;;;;;;;4.81;68.79;93483.69;5152215;27;20256;-77
2023/03/15 03:33:25;;;;;;;8.13;4.32;;;;;;;4.76;69.27;93483.06;5152677;27;20246;-78
2023/03/15 03:35:53;;;;;;;9.02;3.83;;;;;;;4.84;70.08;93480.38;5153037;27;20200;-77
2023/03/15 03:38:21;;;;;;;13.68;4.38;;;;;;;4.88;69.19;93481.31;5138731;27;20192;-78
2023/03/15 03:40:48;;;;;;;9.15;4.13;;;;;;;4.77;68.23;93468.56;5139701;27;20663;-78
2023/03/15 03:43:15;;;;;;;9.25;4.90;;;;;;;4.92;67.26;93466.13;5151673;27;20827;-78
2023/03/15 03:45:41;;;;;;;10.90;4.47;;;;;;;5.04;67.14;93467.38;5139120;27;20197;-78
2023/03/15 03:48:08;;;;;;;10.70;5.00;;;;;;;5.20;67.56;93471.06;5145543;27;20200;-78
2023/03/15 03:50:35;;;;;;;8.27;4.40;;;;;;;5.24;67.48;93472.81;5144292;27;20200;-78
2023/03/15 03:53:02;;;;;;;9.27;3.92;;;;;;;5.24;67.73;93463.97;5131884;27;20292;-78
2023/03/15 03:55:32;;;;;;;6.90;3.45;;;;;;;5.19;69.51;93469.53;5130874;27;20733;-78
2023/03/15 03:57:59;;;;;;;10.82;4.80;;;;;;;5.32;68.35;93469.31;5138396;27;20203;-78
2023/03/15 04:00:26;;;;;;;11.00;4.93;;;;;;;5.32;67.95;93463.16;5137934;27;20282;-78
2023/03/15 04:02:53;;;;;;;8.15;4.80;;;;;;;5.29;67.30;93461.91;5144360;27;20189;-78
2023/03/15 04:05:21;;;;;;;12.13;4.80;;;;;;;5.35;67.15;93449.84;5145612;27;20224;-78
2023/03/15 04:07:47;;;;;;;12.32;4.80;;;;;;;5.36;66.95;93450.63;5144305;27;20201;-79
2023/03/15 04:10:15;;;;;;;8.40;4.50;;;;;;;5.50;67.32;93442.34;5145928;27;20220;-78
2023/03/15 04:12:43;;;;;;;8.57;5.25;;;;;;;5.53;66.68;93447.88;5143376;27;20671;-78
2023/03/15 04:15:11;;;;;;;8.30;4.57;;;;;;;5.55;66.87;93445.66;5145120;27;20201;-78
2023/03/15 04:17:38;;;;;;;8.52;4.88;;;;;;;5.49;67.45;93440.78;5139374;27;20228;-78
2023/03/15 04:20:07;;;;;;;10.07;5.18;;;;;;;5.44;67.92;93438.31;5149453;27;20217;-78
2023/03/15 04:22:34;;;;;;;7.80;4.63;;;;;;;5.35;66.66;93441.81;5140782;27;20734;-77
2023/03/15 04:25:02;;;;;;;11.25;4.95;;;;;;;5.20;66.74;93444.25;5147348;27;20197;-78
2023/03/15 04:27:28;;;;;;;10.68;5.72;;;;;;;5.23;67.90;93439.00;5143784;27;20686;-78
2023/03/15 04:29:56;;;;;;;11.10;4.80;;;;;;;5.32;67.47;93449.72;5141940;27;20236;-78
2023/03/15 04:32:23;;;;;;;11.90;6.85;;;;;;;5.17;66.28;93444.91;5138546;27;20219;-78
2023/03/15 04:34:51;;;;;;;18.92;6.57;;;;;;;5.29;66.72;93443.09;5142610;27;20706;-77
2023/03/15 04:37:18;;;;;;;14.20;6.65;;;;;;;5.24;67.22;93437.91;5138936;27;20293;-77
2023/03/15 04:39:44;;;;;;;13.98;6.50;;;;;;;5.31;66.42;93424.00;5142035;27;20196;-79
2023/03/15 04:42:11;;;;;;;16.20;8.02;;;;;;;5.14;66.90;93434.81;5139751;27;20193;-81
2023/03/15 04:44:38;;;;;;;14.10;5.78;;;;;;;5.34;65.69;93439.44;5144912;27;20192;-81
2023/03/15 04:47:06;;;;;;;12.50;5.20;;;;;;;5.52;62.76;93438.25;5141987;27;20200;-81
2023/03/15 04:49:33;;;;;;;14.15;6.18;;;;;;;5.52;63.55;93440.94;5140197;27;20220;-81
2023/03/15 04:52:00;;;;;;;13.35;6.03;;;;;;;5.47;63.40;93443.00;5147627;27;20216;-82
2023/03/15 04:54:27;;;;;;;7.07;3.83;;;;;;;5.54;61.13;93444.06;5145433;27;20213;-82
2023/03/15 04:56:54;;;;;;;13.35;5.43;;;;;;;5.52;61.18;93440.94;5142089;27;20249;-80
2023/03/15 04:59:21;;;;;;;11.30;5.20;;;;;;;5.57;60.67;93434.59;5144354;27;20232;-80
2023/03/15 05:01:47;;;;;;;11.85;5.32;;;;;;;5.60;60.38;93442.75;5142682;27;20294;-78
2023/03/15 05:04:16;;;;;;;9.68;4.57;;;;;;;5.63;60.49;93436.75;5144470;27;20205;-78
2023/03/15 05:06:43;;;;;;;11.13;4.93;;;;;;;5.69;60.16;93440.81;5143118;27;20225;-78
2023/03/15 05:09:17;;;;;;;10.77;4.65;;;;;;;5.70;60.01;93442.41;5136161;27;20196;-74
2023/03/15 05:11:45;;;;;;;11.52;5.70;;;;;;;6.00;59.88;93450.47;5143238;27;20188;-79
2023/03/15 05:14:11;;;;;;;16.63;5.60;;;;;;;6.48;59.68;93439.13;5132231;27;20656;-82
2023/03/15 05:16:38;;;;;;;15.35;5.72;;;;;;;7.50;56.66;93438.31;5142993;27;20207;-77
2023/03/15 05:19:05;;;;;;;10.07;5.32;;;;;;;8.55;54.60;93431.03;5137772;27;20240;-77
2023/03/15 05:21:33;;;;;;;10.02;5.35;;;;;;;9.23;51.72;93418.16;5147981;27;20245;-77
2023/03/15 05:24:00;;;;;;;15.15;6.43;;;;;;;9.04;52.13;93420.75;5131877;27;20913;-80
2023/03/15 05:26:28;;;;;;;12.38;6.10;;;;;;;8.73;52.51;93420.72;5137798;27;20567;-79
2023/03/15 05:28:55;;;;;;;17.10;5.72;;;;;;;8.03;55.20;93428.38;5138927;27;20594;-77
2023/03/15 05:31:22;;;;;;;13.18;5.35;;;;;;;7.52;54.90;93421.81;5137239;27;20960;-80
2023/03/15 05:33:49;;;;;;;17.13;5.93;;;;;;;7.60;54.94;93426.28;5143806;27;20293;-78
2023/03/15 05:36:17;;;;;;;12.23;5.30;;;;;;;7.54;54.66;93419.53;5135855;27;20193;-78
2023/03/15 05:38:45;;;;;;;9.57;5.18;;;;;;;7.21;56.38;93416.97;5139585;27;20196;-78
2023/03/15 05:41:16;;;;;;;16.38;5.63;;;;;;;7.32;55.02;93424.28;5150017;27;20687;-78
2023/03/15 05:43:43;;;;;;;11.88;5.80;;;;;;;7.35;55.14;93429.00;5150113;27;20222;-77
2023/03/15 05:46:10;;;;;;;9.48;5.38;;;;;;;7.35;54.75;93418.22;5135929;27;20192;-77
2023/03/15 05:48:37;;;;;;;9.88;5.30;;;;;;;6.92;55.26;93416.03;5150280;27;20273;-77
2023/03/15 05:51:04;;;;;;;7.60;4.40;;;;;;;6.78;55.14;93423.66;5150290;27;20200;-78
2023/03/15 05:53:30;;;;;;;7.97;4.10;;;;;;;6.23;56.40;93430.19;5138486;27;20238;-78
2023/03/15 05:55:58;;;;;;;12.00;3.80;;;;;;;6.20;57.11;93428.16;5147259;27;20204;-78
2023/03/15 05:58:25;;;;;;;9.98;4.75;;;;;;;6.41;57.48;93434.31;5137904;27;20264;-78
2023/03/15 06:00:53;;;;;;;9.20;4.40;;;;;;;6.37;56.99;93433.38;5129626;27;20236;-78
2023/03/15 06:03:19;;;;;;;13.32;3.97;;;;;;;6.69;56.58;93431.03;5141175;27;20200;-78
2023/03/15 06:05:46;;;;;;;7.95;3.53;;;;;;;7.09;56.44;93415.84;5130181;27;20221;-78
2023/03/15 06:08:13;;;;;;;9.98;3.45;;;;;;;6.93;55.60;93417.63;5140891;27;20696;-78
2023/03/15 06:10:40;;;;;;;12.30;3.58;;;;;;;6.98;55.39;93425.47;5142716;27;20662;-79
2023/03/15 06:13:08;;;;;;;8.07;3.70;;;;;;;7.44;54.22;93405.41;5142209;27;20588;-78
2023/03/15 06:15:35;;;;;;;10.20;3.47;;;;;;;8.47;52.11;93405.75;5135800;27;20287;-78
2023/03/15 06:18:02;;;;;;;5.50;3.00;;;;;;;9.20;49.30;93402.66;5136484;27;20297;-78
2023/03/15 06:20:30;;;;;;;7.60;3.47;;;;;;;10.12;46.95;93408.59;5142792;27;20224;-78
2023/03/15 06:22:57;;;;;;;7.22;3.10;;;;;;;9.99;46.58;93408.72;5142944;27;20207;-78
2023/03/15 06:25:24;;;;;;;6.20;3.53;;;;;;;10.31;46.40;93411.38;5130022;27;20200;-78
2023/03/15 06:27:51;;;;;;;3.92;2.22;;;;;;;9.70;47.27;93409.25;5142858;27;20245;-78
2023/03/15 06:30:20;;;;;;;5.70;2.65;;;;;;;9.21;47.89;93404.22;5138153;27;20193;-79
2023/03/15 06:32:46;;;;;;;4.70;2.55;;;;;;;10.09;46.90;93399.28;5129753;27;20266;-78
2023/03/15 06:35:13;;;;;;;7.63;4.38;;;;;;;11.58;43.32;93368.75;5149920;27;20200;-78
2023/03/15 06:37:40;;;;;;;4.75;2.40;;;;;;;13.03;40.24;93377.97;5149472;27;20208;-79
2023/03/15 06:40:10;;;;;;;9.40;2.67;;;;;;;12.55;40.58;93391.44;5150342;27;20228;-77
2023/03/15 06:42:37;;;;;;;4.78;2.38;;;;;;;11.19;42.83;93390.59;5153924;27;20642;-77
2023/03/15 06:45:04;;;;;;;11.68;3.38;;;;;;;11.16;43.80;93391.31;5145973;27;20196;-76
2023/03/15 06:47:32;;;;;;;9.32;3.97;;;;;;;12.06;41.96;93384.19;5147030;27;20238;-77
2023/03/15 06:49:59;;;;;;;9.25;3.83;;;;;;;12.35;41.54;93379.16;5142349;27;20207;-77
2023/03/15 06:52:26;;;;;;;10.45;4.88;;;;;;;12.76;40.58;93388.97;5151184;27;20725;-78
2023/03/15 06:54:53;;;;;;;5.28;2.80;;;;;;;12.12;41.12;93389.31;5142153;27;20919;-77
2023/03/15 06:57:20;;;;;;;8.25;3.42;;;;;;;12.03;42.01;93382.22;5150760;27;20654;-79
2023/03/15 06:59:47;;;;;;;4.25;2.78;;;;;;;10.95;43.76;93390.91;5131955;27;20224;-77
2023/03/15 07:02:15;;;;;;;7.35;3.00;;;;;;;10.26;45.46;93389.97;5146266;27;20659;-77
2023/03/15 07:04:44;;;;;;;10.77;4.40;;;;;;;10.06;46.43;93383.75;5142438;27;20200;-78
2023/03/15 07:07:10;;;;;;;9.68;3.22;;;;;;;10.54;45.76;93377.00;5139177;27;20738;-78
2023/03/15 07:09:37;;;;;;;20.52;4.32;;;;;;;11.46;43.36;93377.09;5147753;27;20643;-80
2023/03/15 07:12:05;;;;;;;14.95;3.45;;;;;;;12.16;42.68;93371.16;5150065;27;20679;-76
2023/03/15 07:14:33;;;;;;;10.85;5.35;;;;;;;11.67;42.16;93371.97;5132413;27;20204;-77
2023/03/15 07:17:00;;;;;;;6.90;3.38;;;;;;;11.52;42.53;93372.91;5145851;27;20412;-77
2023/03/15 07:19:26;;;;;;;6.85;3.67;;;;;;;10.95;43.79;93370.03;5143235;27;20299;-79
2023/03/15 07:21:55;;;;;;;6.93;2.65;;;;;;;10.91;43.71;93376.56;5140096;27;20193;-77
2023/03/15 07:24:21;;;;;;;115.32;35.50;;;;;;;10.93;43.65;93387.81;5153066;27;20213;-77
2023/03/15 07:26:49;;;;;;;13.38;5.15;;;;;;;11.51;42.55;93379.47;5153104;27;20204;-79
2023/03/15 07:29:17;;;;;;;9.20;4.88;;;;;;;11.51;42.46;93379.47;5144495;27;20411;-79
2023/03/15 07:31:44;;;;;;;5.65;3.47;;;;;;;12.05;41.48;93377.22;5137350;27;20695;-78
2023/03/15 07:34:10;;;;;;;11.25;3.47;;;;;;;12.31;40.42;93362.03;5153078;27;20219;-77
2023/03/15 07:36:37;;;;;;;5.20;3.17;;;;;;;11.82;41.20;93368.38;5148046;27;20220;-76
2023/03/15 07:39:05;;;;;;;5.85;3.25;;;;;;;12.06;40.57;93378.78;5132511;27;20212;-75
2023/03/15 07:41:32;;;;;;;5.90;3.08;;;;;;;12.37;39.83;93383.06;5146428;27;20223;-76
2023/03/15 07:43:59;;;;;;;6.88;3.70;;;;;;;13.71;44.88;93372.00;5152898;27;20207;-75
2023/03/15 07:46:26;;;;;;;6.05;3.20;;;;;;;14.13;42.28;93366.03;5152878;27;20209;-75
2023/03/15 07:48:53;;;;;;;7.00;3.05;;;;;;;14.03;43.79;93364.03;5146382;27;20980;-75
2023/03/15 07:51:20;;;;;;;8.60;3.38;;;;;;;14.75;41.38;93352.34;5138426;27;20219;-76
2023/03/15 07:53:46;;;;;;;9.32;4.78;;;;;;;13.77;45.84;93339.78;5151846;27;20727;-74
2023/03/15 07:56:15;;;;;;;10.80;4.60;;;;;;;12.56;39.99;93349.53;5152986;27;20208;-76
2023/03/15 07:58:41;;;;;;;7.95;4.68;;;;;;;11.53;41.75;93367.13;5152168;27;20212;-75
2023/03/15 08:01:09;;;;;;;6.85;3.38;;;;;;;11.38;42.99;93363.41;5152113;27;20223;-78
2023/03/15 08:03:36;;;;;;;6.45;3.30;;;;;;;10.82;42.84;93371.34;5138216;27;20226;-75
2023/03/15 08:06:03;;;;;;;5.78;3.67;;;;;;;10.37;44.00;93377.47;5144043;27;20220;-76
2023/03/15 08:08:30;;;;;;;6.60;2.20;;;;;;;10.38;44.20;93378.25;5145098;27;20738;-77
2023/03/15 08:10:58;;;;;;;3.22;2.13;;;;;;;10.54;44.16;93370.81;5131322;27;20192;-76
2023/03/15 08:13:26;;;;;;;4.38;2.22;;;;;;;11.08;42.51;93367.94;5134172;27;20329;-77
2023/03/15 08:15:53;;;;;;;7.20;2.85;;;;;;;10.58;43.28;93367.03;5152148;27;20324;-77
2023/03/15 08:18:19;;;;;;;12.27;2.92;;;;;;;10.57;43.91;93354.66;5135489;27;20317;-80
2023/03/15 08:20:46;;;;;;;4.45;2.22;;;;;;;10.57;43.41;93348.44;5139762;27;20269;-77
2023/03/15 08:23:15;;;;;;;6.18;2.75;;;;;;;11.73;41.73;93337.97;5146365;27;20203;-77
2023/03/15 08:25:42;;;;;;;6.50;3.70;;;;;;;11.49;41.82;93343.81;5152219;27;20324;-77
2023/03/15 08:28:10;;;;;;;7.10;2.95;;;;;;;11.97;41.20;93345.72;5146545;27;20208;-75
2023/03/15 08:30:38;;;;;;;5.35;2.40;;;;;;;11.81;40.93;93333.47;5149961;27;20200;-76
2023/03/15 08:33:05;;;;;;;4.35;2.50;;;;;;;11.17;41.74;93333.25;5148176;27;20278;-76
2023/03/15 08:35:33;;;;;;;4.82;2.80;;;;;;;11.37;41.83;93337.44;5139399;27;20200;-75
2023/03/15 08:38:01;;;;;;;7.45;2.65;;;;;;;11.30;41.47;93344.69;5151347;27;20307;-75
2023/03/15 08:40:29;;;;;;;7.90;2.97;;;;;;;10.95;42.40;93344.88;5151290;27;20224;-76
2023/03/15 08:42:56;;;;;;;7.45;2.80;;;;;;;11.74;42.12;93340.34;5151057;27;20670;-74
2023/03/15 08:45:24;;;;;;;4.97;2.70;;;;;;;12.31;40.50;93324.00;5139979;27;20205;-75
2023/03/15 08:47:55;;;;;;;4.53;2.78;;;;;;;11.96;41.12;93314.28;5144377;27;20205;-76
2023/03/15 08:50:23;;;;;;;3.40;2.10;;;;;;;11.85;41.39;93324.22;5142074;27;20197;-76
2023/03/15 08:52:49;;;;;;;3.03;1.83;;;;;;;11.55;42.25;93339.66;5137642;27;20261;-75
2023/03/15 08:55:16;;;;;;;2.20;1.50;;;;;;;11.09;43.11;93341.63;5150865;27;20264;-74
2023/03/15 08:57:43;;;;;;;8.27;3.25;;;;;;;10.76;44.19;93350.34;5145097;27;20208;-81
2023/03/15 09:00:16;;;;;;;7.88;3.03;;;;;;;11.44;43.43;93344.13;5141969;27;20230;-80
2023/03/15 09:02:42;;;;;;;9.73;2.97;;;;;;;11.66;42.49;93335.16;5136332;27;20200;-83
2023/03/15 09:05:11;;;;;;;7.63;3.35;;;;;;;11.83;42.25;93342.78;5151219;27;20224;-78
2023/03/15 09:07:41;;;;;;;7.07;3.03;;;;;;;12.14;41.95;93338.16;5137023;27;20253;-79
2023/03/15 09:10:09;;;;;;;7.68;3.95;;;;;;;12.13;42.36;93333.88;5136700;27;20220;-80
2023/03/15 09:12:35;;;;;;;15.25;3.17;;;;;;;12.74;40.95;93336.13;5150614;27;20208;-79
2023/03/15 09:15:02;;;;;;;6.85;3.33;;;;;;;12.34;41.93;93339.56;5150005;27;20261;-81
2023/03/15 09:17:29;;;;;;;7.15;3.17;;;;;;;12.20;41.59;93334.75;5141834;27;20285;-81
2023/03/15 09:19:56;;;;;;;4.68;2.38;;;;;;;11.90;42.09;93342.88;5144774;27;20200;-79
2023/03/15 09:22:24;;;;;;;9.20;3.72;;;;;;;11.70;42.87;93344.13;5150404;27;20204;-83
2023/03/15 09:24:51;;;;;;;6.32;2.55;;;;;;;11.08;44.35;93346.25;5136997;27;20250;-84
2023/03/15 09:27:18;;;;;;;9.57;3.85;;;;;;;11.58;43.56;93347.06;5150336;27;20228;-83
2023/03/15 09:29:45;;;;;;;8.48;4.05;;;;;;;11.56;43.37;93343.91;5136505;27;20205;-85
2023/03/15 09:32:12;;;;;;;7.78;3.03;;;;;;;11.85;43.11;93335.09;5141003;27;20232;-82
2023/03/15 09:34:39;;;;;;;5.13;2.85;;;;;;;11.55;43.32;93339.66;5144305;27;20347;-83
2023/03/15 09:37:06;;;;;;;6.90;3.83;;;;;;;11.74;43.86;93334.91;5139476;27;20604;-79
2023/03/15 09:39:34;;;;;;;13.27;3.33;;;;;;;12.01;43.01;93322.13;5136446;27;20200;-80
2023/03/15 09:42:03;;;;;;;7.88;4.10;;;;;;;12.17;42.29;93318.41;5149869;27;20228;-81
2023/03/15 09:44:44;;;;;;;6.43;3.33;;;;;;;12.05;42.59;93328.34;5145841;27;20246;-80
2023/03/15 09:47:26;;;;;;;5.20;2.78;;;;;;;11.72;42.82;93320.94;5141648;27;20202;-80
2023/03/15 09:49:57;;;;;;;8.38;3.08;;;;;;;11.51;43.71;93314.41;5138043;27;20223;-79
2023/03/15 09:52:37;;;;;;;5.45;2.67;;;;;;;11.76;43.26;93315.56;5136165;27;20185;-81
2023/03/15 09:55:14;;;;;;;3.60;2.45;;;;;;;11.57;43.51;93307.53;5139030;27;20636;-83
2023/03/15 09:57:46;;;;;;;7.93;3.90;;;;;;;11.89;43.54;93300.63;5135457;27;20241;-80
2023/03/15 10:00:17;;;;;;;3.60;2.60;;;;;;;12.41;42.28;93307.09;5136337;27;20216;-81
2023/03/15 10:02:54;;;;;;;5.55;2.58;;;;;;;12.74;41.41;93309.75;5129013;27;20960;-81
2023/03/15 10:05:26;;;;;;;5.85;3.58;;;;;;;12.94;41.10;93306.84;5144705;27;20224;-81
2023/03/15 10:07:53;;;;;;;6.72;3.25;;;;;;;12.96;40.80;93315.41;5140158;27;20196;-81
2023/03/15 10:10:27;;;;;;;6.60;3.00;;;;;;;12.69;41.40;93310.09;5132863;27;20268;-78
2023/03/15 10:13:06;;;;;;;5.13;2.95;;;;;;;12.65;41.54;93303.84;5138970;27;20242;-79
2023/03/15 10:15:42;;;;;;;5.40;3.30;;;;;;;12.74;41.45;93301.59;5148748;27;20211;-81
2023/03/15 10:18:26;;;;;;;5.20;3.17;;;;;;;12.74;41.00;93315.19;5149567;27;20243;-80
2023/03/15 10:21:01;;;;;;;6.88;3.38;;;;;;;13.06;40.88;93306.56;5139762;27;20766;-79
2023/03/15 10:23:40;;;;;;;10.38;4.63;;;;;;;13.53;40.03;93295.66;5147414;27;20205;-79
2023/03/15 10:26:15;;;;;;;12.98;4.47;;;;;;;14.06;40.04;93308.84;5149907;27;20276;-79
2023/03/15 10:28:43;;;;;;;6.35;3.00;;;;;;;13.83;39.15;93302.84;5133051;27;20687;-79
2023/03/15 10:31:14;;;;;;;8.52;4.95;;;;;;;13.58;40.07;93291.03;5142597;27;20208;-81
2023/03/15 10:33:42;;;;;;;10.07;4.72;;;;;;;12.94;40.64;93285.09;5136981;27;20224;-80
2023/03/15 10:36:16;;;;;;;8.32;5.20;;;;;;;12.75;41.63;93294.22;5135442;27;20215;-80
2023/03/15 10:38:43;;;;;;;6.57;4.13;;;;;;;13.32;40.75;93290.09;5149582;27;20216;-80
2023/03/15 10:41:26;;;;;;;6.10;4.20;;;;;;;13.78;40.08;93300.50;5135458;27;20711;-80
2023/03/15 10:43:59;;;;;;;9.48;4.95;;;;;;;13.77;39.85;93304.41;5137640;27;20193;-80
2023/03/15 10:46:26;;;;;;;11.57;4.65;;;;;;;13.88;39.20;93294.34;5149092;27;20200;-80
2023/03/15 10:48:57;;;;;;;13.18;5.05;;;;;;;13.55;40.39;93289.84;5149578;27;20903;-80
2023/03/15 10:51:27;;;;;;;6.00;4.30;;;;;;;13.30;41.29;93297.84;5136323;27;20200;-80
2023/03/15 10:53:57;;;;;;;4.65;3.67;;;;;;;13.20;40.54;93304.00;5134980;27;20212;-82
2023/03/15 10:56:27;;;;;;;13.15;4.15;;;;;;;12.97;41.04;93306.09;5137157;27;20634;-79
2023/03/15 10:58:56;;;;;;;6.35;4.35;;;;;;;12.65;41.54;93295.69;5135902;27;20258;-79
2023/03/15 11:01:26;;;;;;;7.40;4.00;;;;;;;12.19;42.67;93288.97;5140434;27;20228;-80
2023/03/15 11:04:12;;;;;;;8.25;4.40;;;;;;;11.94;43.44;93294.88;5131711;27;21031;-80
2023/03/15 11:06:42;;;;;;;7.70;3.95;;;;;;;11.82;43.29;93297.81;5136819;27;20219;-79
2023/03/15 11:09:11;;;;;;;8.15;4.38;;;;;;;11.59;43.73;93294.38;5142667;27;20208;-80
2023/03/15 11:11:58;;;;;;;7.80;4.22;;;;;;;11.44;44.17;93287.19;5142544;27;20205;-80
2023/03/15 11:14:27;;;;;;;10.77;4.00;;;;;;;11.55;44.20;93288.91;5139159;27;20197;-80
2023/03/15 11:16:55;;;;;;;5.45;2.72;;;;;;;11.79;43.91;93287.69;5131909;27;20197;-80
2023/03/15 11:19:26;;;;;;;6.65;3.85;;;;;;;11.72;43.43;93280.22;5150270;27;20204;-84
2023/03/15 11:21:54;;;;;;;5.75;2.92;;;;;;;11.87;43.04;93278.53;5149105;27;20213;-79
2023/03/15 11:24:25;;;;;;;5.60;3.05;;;;;;;11.86;43.50;93287.81;5149678;27;20253;-80
2023/03/15 11:26:55;;;;;;;6.28;4.20;;;;;;;12.22;42.82;93277.38;5135716;27;20245;-80
2023/03/15 11:29:25;;;;;;;6.82;3.75;;;;;;;12.78;41.89;93283.41;5154073;27;20196;-79
2023/03/15 11:31:53;;;;;;;3.85;2.75;;;;;;;12.94;41.42;93285.09;5152867;27;20698;-79
2023/03/15 11:34:33;;;;;;;6.97;3.78;;;;;;;13.38;41.43;93277.72;5143503;27;20204;-82
2023/03/15 11:37:04;;;;;;;7.55;4.03;;;;;;;13.86;40.44;93267.50;5146332;27;20332;-81
2023/03/15 11:39:44;;;;;;;4.07;2.75;;;;;;;14.27;39.10;93255.59;5141567;27;20234;-81